^^
Datos históricos de la estación: Murcia-Puente Tocinos
Diario Informe para Noviembre 30, 2019 Unidades:  Ingés    Métrico   Ambas
Diario Semanal Mensual Anual
  Máxima: Mínima: Promedio:
Temperatura: 71.4 °F 55.6 °F 61.5 °F
Punto de rocio: 53.2 °F 48.9 °F 51.1 °F
Humedad: 86% 50% 70%
Velocidad viento: 6.9mph 0mph 3.5mph
Racha viento: 13mph - -
Viento- - SSO
Presión: 30.1 in 29.9 in -
Precipitación: 0 in    
 
 
Tabla de datos para Noviembre 30, 2019
Hora Temperatura Punto de rocio Presión Viento Velocidad viento Racha viento Humedad Intensidad lluvia(por hora) Nubes
00:04 59.4 °F 50.7 °F 30.1 in SSO 2.7 mph 5 mph 73% 0 in
00:09 59.4 °F 50.4 °F 30.1 in SSO 2.9 mph 5 mph 72.1% 0 in
00:14 59.5 °F 50.5 °F 30.1 in SSO 2.2 mph 5 mph 72% 0 in
00:19 59.5 °F 50.5 °F 30.1 in SSO 2 mph 5 mph 72% 0 in
00:24 59.5 °F 50.4 °F 30.1 in SSO 1.9 mph 5 mph 72% 0 in
00:29 59.4 °F 50.4 °F 30.1 in SSO 1.8 mph   72% 0 in
00:34 59.2 °F 50.5 °F 30.1 in SSO 0.6 mph   73% 0 in
00:39 59 °F 50.4 °F 30.1 in Calm     73% 0 in
00:44 58.8 °F 50.2 °F 30.1 in Calm     73% 0 in
00:49 58.6 °F 50.4 °F 30.1 in Calm     74% 0 in
00:54 58.5 °F 50.4 °F 30.1 in Calm     74% 0 in
00:59 58.5 °F 50.2 °F 30.1 in Calm     74% 0 in
01:04 58.3 °F 50 °F 30.1 in Calm     74% 0 in
01:09 58.1 °F 50 °F 30.1 in Calm     74.5% 0 in
01:14 57.9 °F 50 °F 30.1 in Calm     75% 0 in
01:19 57.9 °F 50 °F 30.1 in Calm   2.9 mph 75% 0 in
01:24 57.9 °F 50 °F 30.1 in Sur 1 mph 4.6 mph 75% 0 in
01:29 57.9 °F 50 °F 30.1 in SSE 1.4 mph 5.9 mph 75% 0 in
01:34 57.9 °F 50 °F 30.1 in SSE 2.6 mph 6 mph 75% 0 in
01:39 57.7 °F 50 °F 30.1 in Sur 3.1 mph 6 mph 75% 0 in
01:44 57.7 °F 49.8 °F 30.1 in Sur 3.5 mph 6.2 mph 75% 0 in
01:49 57.7 °F 50 °F 30.1 in Sur 3.6 mph 6 mph 75% 0 in
01:54 57.7 °F 49.8 °F 30.1 in Sur 3.6 mph 5.8 mph 75% 0 in
01:59 57.7 °F 49.8 °F 30.1 in Sur 3.6 mph 6 mph 75% 0 in
02:04 57.7 °F 49.8 °F 30.1 in SSO 3.2 mph 5.9 mph 75% 0 in
02:09 57.7 °F 49.8 °F 30.1 in SSO 3.1 mph 6 mph 75% 0 in
02:14 57.7 °F 50 °F 30.1 in OSO 3.4 mph 6 mph 75% 0 in
02:19 57.7 °F 50 °F 30.1 in Oeste 3.6 mph 5 mph 75% 0 in
02:24 57.7 °F 49.8 °F 30.1 in Oeste 2.7 mph 5 mph 75% 0 in
02:29 57.6 °F 49.8 °F 30.1 in OSO 2.4 mph 5 mph 75% 0 in
02:34 57.6 °F 49.8 °F 30.1 in SSO 2.7 mph 5.4 mph 75.5% 0 in
02:39 57.6 °F 49.8 °F 30.1 in SO 2.9 mph 6 mph 75.5% 0 in
02:44 57.7 °F 49.8 °F 30.1 in OSO 2.5 mph 5 mph 75% 0 in
02:49 57.7 °F 49.8 °F 30.1 in OSO 2.4 mph 3 mph 75% 0 in
02:54 57.6 °F 49.8 °F 30.1 in OSO 0.7 mph 1 mph 75% 0 in
02:59 57.6 °F 49.6 °F 30.1 in Calm     75% 0 in
03:04 57.4 °F 49.6 °F 30.1 in Calm     75.1% 0 in
03:09 57.4 °F 49.8 °F 30.1 in Calm     76% 0 in
03:14 57 °F 49.6 °F 30.1 in Calm   5.2 mph 76.2% 0 in
03:19 57 °F 49.8 °F 30.1 in Calm   5.9 mph 76.9% 0 in
03:24 57 °F 49.6 °F 30.1 in SSO 2.2 mph 7.4 mph 76% 0 in
03:29 57.2 °F 49.8 °F 30.1 in SSO 3.1 mph 7 mph 76% 0 in
03:34 57.4 °F 49.8 °F 30.1 in SSO 4.2 mph 8.1 mph 76% 0 in
03:39 57.4 °F 49.8 °F 30.1 in SSO 4.7 mph 8.1 mph 75.8% 0 in
03:44 57.6 °F 49.6 °F 30.1 in SSO 4.7 mph 8.1 mph 75% 0 in
03:49 57.6 °F 49.6 °F 30.1 in SSO 4.7 mph 8 mph 75% 0 in
03:54 57.6 °F 49.6 °F 30.1 in SSO 4.7 mph 8.1 mph 75% 0 in
03:59 57.6 °F 49.6 °F 30.1 in SO 4.7 mph 8.1 mph 75% 0 in
04:04 57.6 °F 49.6 °F 30.1 in SSO 5.1 mph 8 mph 75% 0 in
04:09 57.6 °F 49.6 °F 30.1 in SSO 5.2 mph 6.9 mph 75% 0 in
04:14 57.6 °F 49.6 °F 30.1 in SSO 4.5 mph 7 mph 75% 0 in
04:19 57.7 °F 49.8 °F 30.1 in SSO 4.3 mph 8.1 mph 75% 0 in
04:24 57.7 °F 49.8 °F 30.1 in SSO 4.3 mph 8 mph 75% 0 in
04:29 57.7 °F 50 °F 30.1 in SSO 4.3 mph 8.1 mph 75% 0 in
04:34 57.9 °F 50 °F 30.1 in SSO 4.3 mph 8 mph 74.7% 0 in
04:39 58.1 °F 50 °F 30.1 in SO 4.3 mph 9.2 mph 74% 0 in
04:44 58.3 °F 50 °F 30.1 in SO 4.6 mph 9 mph 74% 0 in
04:49 58.3 °F 50 °F 30.1 in SO 4.7 mph 8.1 mph 74% 0 in
04:54 58.3 °F 50 °F 30.1 in SO 4.7 mph 8.1 mph 74% 0 in
04:59 58.3 °F 50 °F 30.1 in SO 4.7 mph 7.4 mph 74% 0 in
05:04 58.3 °F 50 °F 30.1 in SO 4.4 mph 7.4 mph 74% 0 in
05:09 58.3 °F 50 °F 30.1 in SSO 4.3 mph 8.5 mph 74% 0 in
05:14 58.3 °F 50 °F 30.1 in SSO 5.1 mph 9 mph 74% 0 in
05:19 58.3 °F 50 °F 30.1 in SSO 5.4 mph 8 mph 74% 0 in
05:24 58.1 °F 49.8 °F 30.1 in SO 4.9 mph 7.4 mph 74% 0 in
05:29 57.9 °F 49.6 °F 30.1 in SSO 4.7 mph 8.5 mph 74% 0 in
05:34 57.9 °F 49.6 °F 30.1 in SSO 5 mph 9 mph 74% 0 in
05:39 57.7 °F 49.8 °F 30.1 in SSO 5.2 mph 8 mph 74.7% 0 in
05:44 57.7 °F 49.8 °F 30.1 in SSO 4.5 mph 8.5 mph 75% 0 in
05:49 57.7 °F 49.8 °F 30.1 in SSO 4.3 mph 9 mph 75% 0 in
05:54 57.7 °F 50 °F 30.1 in SSO 4.3 mph 8.1 mph 75% 0 in
05:59 57.9 °F 50 °F 30.1 in SO 4.3 mph 8 mph 75% 0 in
06:04 57.9 °F 50 °F 30.1 in SO 3.4 mph 6 mph 75% 0 in
06:09 57.7 °F 49.6 °F 30.1 in SO 3.1 mph 6 mph 74.2% 0 in
06:14 57.6 °F 49.5 °F 30.1 in SO 2.6 mph 5 mph 74.3% 0 in
06:19 57.2 °F 49.5 °F 30.1 in SO 2.4 mph 4 mph 75% 0 in
06:24 56.8 °F 49.3 °F 30.1 in SO 2 mph 3.6 mph 75.6% 0 in
06:29 56.5 °F 49.1 °F 30.1 in SO 1.8 mph 4 mph 76.2% 0 in
06:34 56.1 °F 48.9 °F 30.1 in SO 1.8 mph 3.5 mph 77.1% 0 in
06:39 55.8 °F 49.1 °F 30.1 in SO 1.8 mph 3 mph 78.2% 0 in
06:44 55.6 °F 49.3 °F 30.1 in SO 0.5 mph 4.7 mph 79% 0 in
06:49 55.8 °F 49.6 °F 30.1 in Calm   5.8 mph 79.8% 0 in
06:54 55.9 °F 49.6 °F 30.1 in SSO 2.2 mph 6.9 mph 79% 0 in
06:59 56.3 °F 49.6 °F 30.1 in SSO 3.1 mph 7 mph 78% 0 in
07:04 56.5 °F 49.6 °F 30.1 in SO 3.8 mph 6 mph 78% 0 in
07:09 56.5 °F 49.6 °F 30.1 in SSO 4 mph 6.9 mph 78% 0 in
07:14 56.7 °F 49.5 °F 30.1 in SSO 4 mph 8.1 mph 77.1% 0 in
07:19 56.7 °F 49.5 °F 30.1 in SSO 4 mph 8 mph 77% 0 in
07:24 56.7 °F 49.5 °F 30.1 in SSO 4.8 mph 8.1 mph 77% 0 in
07:29 56.5 °F 49.5 °F 30.1 in SO 5.2 mph 8.1 mph 77% 0 in
07:34 56.5 °F 49.5 °F 30.1 in SSO 4.8 mph 8 mph 77% 0 in
07:39 56.5 °F 49.5 °F 30.1 in SSO 4.7 mph 7.4 mph 77% 0 in
07:44 56.5 °F 49.5 °F 30.1 in SSO 5 mph 8.1 mph 77% 0 in
07:49 56.5 °F 49.5 °F 30.1 in SSO 5.2 mph 8 mph 77% 0 in
07:54 56.5 °F 49.5 °F 30.1 in SSO 5.2 mph 7 mph 77% 0 in
07:59 56.3 °F 49.5 °F 30.1 in SSO 5.2 mph 7 mph 77.7% 0 in
08:04 56.1 °F 49.5 °F 30.1 in SSO 4.5 mph 6.9 mph 78% 0 in
08:09 55.9 °F 49.3 °F 30.1 in SSO 4.3 mph 7.4 mph 78% 0 in
08:14 55.9 °F 49.3 °F 30.1 in SSO 5 mph 7.4 mph 78% 0 in
08:19 55.9 °F 49.3 °F 30.1 in SSO 5.2 mph 8.1 mph 78% 0 in
08:24 55.9 °F 49.3 °F 30.1 in SSO 5.3 mph 9.2 mph 78% 0 in
08:29 56.1 °F 49.5 °F 30.1 in SO 5.4 mph 10.7 mph 78% 0 in
08:34 56.3 °F 49.3 °F 30.1 in SSO 6 mph 11 mph 77.5% 0 in
08:39 56.5 °F 49.5 °F 30.1 in SSO 6.2 mph 10.4 mph 77% 0 in
08:44 56.7 °F 49.5 °F 30.1 in SO 6.7 mph 10 mph 77% 0 in
08:49 56.7 °F 49.5 °F 30.1 in SSO 6.9 mph 11.5 mph 76.8% 0 in
08:54 56.8 °F 49.3 °F 30.1 in SSO 6.4 mph 12.5 mph 76% 0 in
08:59 56.8 °F 49.5 °F 30.1 in SSO 6.2 mph 13 mph 76% 0 in
09:04 57 °F 49.5 °F 30.1 in SSO 6.7 mph 12 mph 75.9% 0 in
09:09 57.4 °F 49.5 °F 30.1 in SSO 6.9 mph 10 mph 75% 0 in
09:14 57.6 °F 49.6 °F 30.1 in SO 6.2 mph 9.7 mph 75% 0 in
09:19 57.7 °F 49.5 °F 30.1 in SSO 5.9 mph 10 mph 74% 0 in
09:24 57.9 °F 49.6 °F 30.1 in SSO 5.4 mph 9 mph 74% 0 in
09:29 58.1 °F 49.8 °F 30.1 in SSO 5.2 mph 8.5 mph 73.8% 0 in
09:34 58.3 °F 49.6 °F 30.1 in SSO 5.2 mph 9.7 mph 73% 0 in
09:39 58.5 °F 49.8 °F 30.1 in SSO 5.2 mph 10 mph 73% 0 in
09:44 58.6 °F 49.8 °F 30.1 in SSO 5.7 mph 9.7 mph 72.6% 0 in
09:49 58.8 °F 49.8 °F 30.1 in SSO 5.9 mph 10 mph 72.1% 0 in
09:54 59 °F 50 °F 30.1 in SO 5.5 mph 9.7 mph 72% 0 in
09:59 59.4 °F 50.2 °F 30.1 in SO 5.4 mph 11.5 mph 72% 0 in
10:04 59.5 °F 50.4 °F 30.1 in SSO 5.8 mph 12 mph 72% 0 in
10:09 59.7 °F 50.5 °F 30.1 in SSO 5.9 mph 10.2 mph 71.3% 0 in
10:14 60.1 °F 50.7 °F 30.1 in SO 5.5 mph 10.4 mph 71% 0 in
10:19 60.3 °F 50.9 °F 30.1 in SSO 5.4 mph 10 mph 71% 0 in
10:24 60.6 °F 51.1 °F 30.1 in SSO 4.9 mph 9 mph 70.6% 0 in
10:29 61 °F 50.9 °F 30.1 in SO 4.7 mph 9 mph 69.6% 0 in
10:34 61.3 °F 51.1 °F 30.1 in SSO 4.4 mph 8.7 mph 69.2% 0 in
10:39 61.5 °F 50.9 °F 30.1 in SO 4.3 mph 9.2 mph 68.1% 0 in
10:44 61.7 °F 51.1 °F 30.1 in SO 4.6 mph 9 mph 68% 0 in
10:49 62.2 °F 51.3 °F 30.1 in SSO 4.7 mph 7 mph 67.6% 0 in
10:54 62.6 °F 51.4 °F 30.1 in Sur 3.9 mph 7.4 mph 66.8% 0 in
10:59 63 °F 51.3 °F 30.1 in SSO 3.6 mph 7 mph 66% 0 in
11:04 63 °F 51.4 °F 30.1 in SSO 4.4 mph 7 mph 66% 0 in
11:09 63.1 °F 51.3 °F 30.1 in Sur 4.7 mph 9.2 mph 65.1% 0 in
11:14 63.3 °F 51.3 °F 30.1 in SSO 4.7 mph 9 mph 65% 0 in
11:19 63.7 °F 51.4 °F 30.1 in Sur 4.7 mph 8.1 mph 64.3% 0 in
11:24 63.9 °F 51.3 °F 30.1 in SO 4.7 mph 8.1 mph 64% 0 in
11:29 63.9 °F 51.3 °F 30.1 in SO 4.7 mph 8.5 mph 63.5% 0 in
11:34 64 °F 50.9 °F 30.1 in OSO 4.4 mph 9 mph 62.4% 0 in
11:39 64 °F 50.9 °F 30.1 in OSO 4.3 mph 8.5 mph 62.3% 0 in
11:44 64 °F 51.1 °F 30.1 in SSO 4.3 mph 9 mph 62.5% 0 in
11:49 64.2 °F 51.1 °F 30.1 in SO 4.3 mph 9.2 mph 62.1% 0 in
11:54 64.8 °F 51.4 °F 30.1 in SO 4.3 mph 9 mph 62% 0 in
11:59 64.9 °F 51.3 °F 30.1 in OSO 4.3 mph 6.9 mph 61.1% 0 in
12:04 64.9 °F 51.3 °F 30.1 in SO 4.1 mph 7.4 mph 61% 0 in
12:09 64.9 °F 51.3 °F 30.1 in Oeste 4 mph 9.2 mph 61% 0 in
12:14 64.9 °F 51.1 °F 30.1 in OSO 4.2 mph 9 mph 60.9% 0 in
12:19 65.1 °F 51.3 °F 30.1 in SO 4.3 mph 8 mph 61% 0 in
12:24 65.3 °F 51.4 °F 30.1 in SSO 4.1 mph 6.2 mph 60.5% 0 in
12:29 65.8 °F 51.1 °F 30.1 in SO 4 mph 9.2 mph 59.2% 0 in
12:34 65.8 °F 51.1 °F 30.1 in SO 3.7 mph 9.2 mph 59% 0 in
12:39 66 °F 51.3 °F 30.1 in OSO 3.6 mph 9 mph 59.1% 0 in
12:44 66 °F 51.3 °F 30.1 in Oeste 3.9 mph 8.1 mph 58.8% 0 in
12:49 66 °F 51.3 °F 30.1 in Oeste 4 mph 7 mph 58.9% 0 in
12:54 66 °F 51.4 °F 30.1 in SSO 3.7 mph 7 mph 59% 0 in
12:59 66.6 °F 51.3 °F 30.1 in Sur 3.6 mph 7 mph 58.1% 0 in
13:04 66.7 °F 51.4 °F 30.1 in Oeste 3.6 mph 8.1 mph 57.9% 0 in
13:09 66.7 °F 51.1 °F 30.1 in ONO 3.6 mph 8 mph 57.3% 0 in
13:14 66.7 °F 51.4 °F 30.1 in Oeste 3.2 mph 7 mph 57.9% 0 in
13:19 66.9 °F 51.4 °F 30.1 in Oeste 3.1 mph 5 mph 57.2% 0 in
13:24 67.3 °F 51.6 °F 30.1 in Oeste 2.3 mph 6.9 mph 57% 0 in
13:29 67.8 °F 51.4 °F 30.1 in Sur 2 mph 7 mph 56.1% 0 in
13:34 68 °F 51.3 °F 30.1 in Este 2.8 mph 7 mph 55.1% 0 in
13:39 68.2 °F 51.4 °F 30.1 in Oeste 3.1 mph 5.8 mph 55% 0 in
13:44 68.4 °F 51.6 °F 30.1 in OSO 2.3 mph 6.2 mph 55% 0 in
13:49 68.4 °F 51.6 °F 30.1 in SE 2 mph 6 mph 55% 0 in
13:54 68.7 °F 51.8 °F 30.1 in ESE 2.3 mph 5 mph 54.8% 0 in
13:59 69.1 °F 51.4 °F 30 in SO 2.4 mph 8.1 mph 53.5% 0 in
14:04 68.9 °F 51.6 °F 30 in SSO 2.8 mph 8 mph 54% 0 in
14:09 69.1 °F 51.6 °F 30 in SSO 2.9 mph 6 mph 54% 0 in
14:14 69.3 °F 51.8 °F 30 in SO 2.9 mph 6 mph 54% 0 in
14:19 69.4 °F 51.6 °F 30 in OSO 2.9 mph 5.9 mph 53.2% 0 in
14:24 69.6 °F 51.6 °F 30 in SO 2.5 mph 6.9 mph 52.9% 0 in
14:29 69.6 °F 51.8 °F 30 in ONO 2.4 mph 7 mph 53% 0 in
14:34 70 °F 51.8 °F 30 in Oeste 2.4 mph 5.9 mph 52.6% 0 in
14:39 70 °F 51.4 °F 30 in OSO 2.4 mph 6 mph 52% 0 in
14:44 70 °F 51.4 °F 30 in OSO 2.9 mph 6.9 mph 52% 0 in
14:49 70 °F 51.4 °F 30 in SO 3.1 mph 7 mph 52% 0 in
14:54 70.2 °F 51.8 °F 30 in SO 3 mph 6.9 mph 52% 0 in
14:59 70.5 °F 51.8 °F 30 in SSO 2.9 mph 7 mph 51.7% 0 in
15:04 70.5 °F 51.4 °F 30 in Sur 2.9 mph 6 mph 51% 0 in
15:09 70.5 °F 51.6 °F 30 in SSO 2.9 mph 6 mph 51% 0 in
15:14 70.9 °F 51.8 °F 30 in Oeste 2.5 mph 6 mph 51% 0 in
15:19 70.9 °F 51.8 °F 30 in SSO 2.4 mph 5 mph 51% 0 in
15:24 71.1 °F 52 °F 30 in Este 2.1 mph 5 mph 51% 0 in
15:29 71.2 °F 52.2 °F 30 in ENE 2 mph 5 mph 51% 0 in
15:34 71.2 °F 51.8 °F 30 in NO 1.9 mph 4 mph 50.3% 0 in
15:39 71.2 °F 51.6 °F 30 in NNO 1.8 mph 5.9 mph 50% 0 in
15:44 71.2 °F 51.6 °F 30 in NO 2.6 mph 6 mph 50.2% 0 in
15:49 71.2 °F 52 °F 30 in Oeste 2.9 mph 5 mph 50.7% 0 in
15:54 71.2 °F 51.6 °F 30 in ONO 2.1 mph 4.7 mph 50% 0 in
15:59 71.2 °F 51.8 °F 30 in SO 1.8 mph 5.2 mph 50.4% 0 in
16:04 71.4 °F 52.3 °F 30 in OSO 2.6 mph 5 mph 51% 0 in
16:09 71.4 °F 52.3 °F 30 in NNE 2.9 mph 5.9 mph 51% 0 in
16:14 71.1 °F 52.5 °F 30 in NE 2.9 mph 6 mph 51.9% 0 in
16:19 70.9 °F 52.3 °F 30 in NE 2.9 mph 6 mph 52% 0 in
16:24 70.9 °F 52.3 °F 30 in NE 3.4 mph 6 mph 52% 0 in
16:29 70.7 °F 52.5 °F 30 in NE 3.6 mph 6.2 mph 52.7% 0 in
16:34 70.5 °F 52.5 °F 30 in NNE 3.6 mph 6.2 mph 53% 0 in
16:39 70.3 °F 52.5 °F 30 in NNE 3.6 mph 6 mph 53% 0 in
16:44 70.3 °F 52.3 °F 30 in NE 3.9 mph 6.2 mph 53% 0 in
16:49 70.3 °F 52.7 °F 30 in Este 4 mph 6 mph 53.8% 0 in
16:54 70.2 °F 52.9 °F 30 in ESE 3.7 mph 7.4 mph 54.2% 0 in
16:59 69.8 °F 53.1 °F 30 in ESE 3.6 mph 11.8 mph 55.1% 0 in
17:04 69.4 °F 53.1 °F 30 in ESE 5.3 mph 12 mph 56% 0 in
17:09 69.1 °F 53.2 °F 30 in ESE 5.9 mph 9 mph 56.9% 0 in
17:14 68.7 °F 53.1 °F 30 in ESE 6.1 mph 9 mph 57.5% 0 in
17:19 68.5 °F 53.1 °F 30 in ESE 6.2 mph 8.5 mph 58% 0 in
17:24 68.2 °F 53.2 °F 30 in ESE 5.5 mph 9 mph 58.9% 0 in
17:29 67.8 °F 53.1 °F 30 in SE 5.2 mph 8.1 mph 59% 0 in
17:34 67.6 °F 53.1 °F 30 in ESE 4.8 mph 8 mph 59.5% 0 in
17:39 67.5 °F 53.1 °F 30 in SE 4.7 mph 6.9 mph 60% 0 in
17:44 67.1 °F 52.7 °F 30 in SE 4.4 mph 7 mph 60% 0 in
17:49 66.7 °F 52.9 °F 30 in ESE 4.3 mph 6.9 mph 60.8% 0 in
17:54 66.6 °F 52.7 °F 30 in ESE 4.3 mph 7.4 mph 61% 0 in
17:59 66.2 °F 52.5 °F 30 in ESE 4.3 mph 8.5 mph 61.6% 0 in
18:04 65.8 °F 52.5 °F 30 in ESE 5 mph 9 mph 62.2% 0 in
18:09 65.5 °F 52.5 °F 30 in ESE 5.2 mph 9.2 mph 63% 0 in
18:14 65.1 °F 52.5 °F 30 in ESE 5.2 mph 9 mph 63.5% 0 in
18:19 64.9 °F 52.5 °F 30 in ESE 5.2 mph 9.2 mph 64% 0 in
18:24 64.8 °F 52.3 °F 30 in ESE 4.8 mph 9.2 mph 64.1% 0 in
18:29 64.6 °F 52.5 °F 30 in ESE 4.7 mph 7 mph 65% 0 in
18:34 64.6 °F 52.5 °F 30 in SE 4.4 mph 6.9 mph 65% 0 in
18:39 64.4 °F 52.3 °F 30 in ESE 4.3 mph 7 mph 65% 0 in
18:44 64.2 °F 52.3 °F 30 in ESE 3.3 mph 5 mph 65.2% 0 in
18:49 64 °F 52.5 °F 30 in ESE 2.9 mph 3.6 mph 65.9% 0 in
18:54 64 °F 52.3 °F 30 in SE 2.2 mph 4.6 mph 66% 0 in
18:59 63.9 °F 52.3 °F 30 in Sur 2 mph 5 mph 66% 0 in
19:04 63.9 °F 52.5 °F 30 in SSO 1.9 mph 3.6 mph 66.8% 0 in
19:09 63.5 °F 52.3 °F 30 in North 1.8 mph 4 mph 67% 0 in
19:14 63.1 °F 52.3 °F 30 in North 1.8 mph 3 mph 68% 0 in
19:19 63 °F 52.2 °F 30 in North 1.8 mph 2 mph 68% 0 in
19:24 62.8 °F 52.3 °F 30 in North 0.5 mph 2.9 mph 68.6% 0 in
19:29 62.8 °F 52.5 °F 30 in Calm   3.1 mph 69% 0 in
19:34 62.6 °F 52.3 °F 30 in North 1 mph 3.5 mph 69% 0 in
19:39 62.6 °F 52.2 °F 30 in North 1.4 mph 3 mph 69% 0 in
19:44 62.2 °F 52.3 °F 30 in North 0.4 mph   69.8% 0 in
19:49 62.1 °F 52.2 °F 30 in Calm   2 mph 70% 0 in
19:54 61.9 °F 52.3 °F 30 in Calm   4.6 mph 70.7% 0 in
19:59 61.5 °F 52.3 °F 30 in Calm   5 mph 71.8% 0 in
20:04 61.5 °F 52.3 °F 30 in SSE 1.3 mph 4.6 mph 72% 0 in
20:09 61.3 °F 52.3 °F 30 in SSE 1.8 mph 5.2 mph 72.3% 0 in
20:14 61.3 °F 52.5 °F 30 in Sur 2.7 mph 6.2 mph 73% 0 in
20:19 61.2 °F 52.5 °F 30 in Sur 3.1 mph 6.9 mph 73.8% 0 in
20:24 60.8 °F 52.5 °F 30 in SSE 3.7 mph 7 mph 74.1% 0 in
20:29 60.6 °F 52.5 °F 30 in SSE 4 mph 7 mph 75% 0 in
20:34 60.6 °F 52.5 °F 30 in Sur 4.2 mph 7 mph 75% 0 in
20:39 60.4 °F 52.5 °F 30 in Sur 4.3 mph 5 mph 75.2% 0 in
20:44 60.3 °F 52.7 °F 30 in Sur 3.3 mph 5 mph 76% 0 in
20:49 60.3 °F 52.7 °F 30 in SSO 2.9 mph 5 mph 76% 0 in
20:54 60.1 °F 52.7 °F 30 in SO 2.9 mph 5 mph 76.7% 0 in
20:59 60.1 °F 52.9 °F 30 in SO 2.9 mph 5 mph 77% 0 in
21:04 59.9 °F 52.7 °F 30 in OSO 2.5 mph 5 mph 77% 0 in
21:09 59.7 °F 52.5 °F 30 in OSO 2.4 mph 5 mph 77% 0 in
21:14 59.5 °F 52.3 °F 30 in OSO 2.1 mph 3.1 mph 77% 0 in
21:19 59.4 °F 52.3 °F 30 in OSO 2 mph 4.7 mph 77.7% 0 in
21:24 59.2 °F 52.5 °F 30 in SO 2.3 mph 6.9 mph 78.6% 0 in
21:29 59 °F 52.5 °F 30 in OSO 2.4 mph 7 mph 79% 0 in
21:34 58.8 °F 52.7 °F 30 in OSO 2.9 mph 6 mph 79.8% 0 in
21:39 58.8 °F 52.7 °F 30 in OSO 3.1 mph 6.2 mph 80% 0 in
21:44 58.6 °F 52.5 °F 30 in OSO 3.1 mph 6 mph 80% 0 in
21:49 58.6 °F 52.5 °F 30 in SSO 3.1 mph 6.9 mph 80.2% 0 in
21:54 58.6 °F 52.7 °F 30 in SSO 3.1 mph 8.1 mph 81% 0 in
21:59 58.6 °F 52.9 °F 30 in SSO 3.1 mph 9.2 mph 81% 0 in
22:04 58.6 °F 52.9 °F 30 in SO 4.3 mph 9 mph 81% 0 in
22:09 58.6 °F 52.9 °F 30 in OSO 4.7 mph 8.1 mph 81% 0 in
22:14 58.5 °F 52.9 °F 30 in OSO 4.2 mph 8.1 mph 81.5% 0 in
22:19 58.3 °F 52.7 °F 30 in OSO 4 mph 9.7 mph 82% 0 in
22:24 57.9 °F 52.7 °F 30 in SO 4.8 mph 10.4 mph 82.8% 0 in
22:29 57.7 °F 52.5 °F 30 in SO 5.2 mph 10 mph 83.1% 0 in
22:34 57.6 °F 52.9 °F 30 in SSO 5.2 mph 8.1 mph 84% 0 in
22:39 57.6 °F 52.7 °F 30 in Sur 5.2 mph 8.5 mph 84% 0 in
22:44 57.4 °F 52.5 °F 29.9 in SSE 5.2 mph 9 mph 84% 0 in
22:49 57 °F 52.3 °F 29.9 in SSE 5.2 mph 10.4 mph 84% 0 in
22:54 56.8 °F 52.2 °F 29.9 in SSE 6.1 mph 10 mph 84% 0 in
22:59 56.7 °F 52 °F 29.9 in Sur 6.4 mph 9 mph 84% 0 in
23:04 56.5 °F 52 °F 29.9 in SSE 5.7 mph 8.5 mph 85% 0 in
23:09 56.3 °F 51.8 °F 29.9 in Sur 5.4 mph 9 mph 85% 0 in
23:14 56.3 °F 52.2 °F 29.9 in SSO 4.9 mph 7.4 mph 85.7% 0 in
23:19 56.5 °F 52.3 °F 29.9 in SSO 4.7 mph 8.5 mph 86% 0 in
23:24 56.7 °F 52.5 °F 29.9 in SSO 4.7 mph 9 mph 86% 0 in
23:29 56.8 °F 52.5 °F 29.9 in SO 4.7 mph 7 mph 85.5% 0 in
23:34 56.8 °F 52.3 °F 29.9 in Sur 4.2 mph 7 mph 85% 0 in
23:39 56.8 °F 52.2 °F 29.9 in SO 4 mph 5.2 mph 84.1% 0 in
23:44 56.8 °F 52.2 °F 29.9 in ONO 2.9 mph 5.2 mph 84% 0 in
23:49 56.7 °F 51.8 °F 29.9 in ONO 2.4 mph 5.8 mph 84% 0 in
23:54 56.5 °F 51.8 °F 29.9 in Oeste 2.9 mph 6 mph 84.3% 0 in
23:59 56.1 °F 51.6 °F 29.9 in Oeste 3.1 mph 6 mph 85% 0 in
Murcia-Puente Tocinos, España
Compliments of Weather Underground - 3.25 mb

La estación de MeteoMurcia.com, publica sus datos en los siguientes proyectos:

Weather Underground PWS IMURCIAP2 Meteoclimatic www.awekas.at

W3Counter
Web Analytics